createdAt,value
2022-12-11T00:01:38.835Z,26.50
2022-12-11T00:04:06.162Z,25.33
2022-12-11T00:06:33.376Z,24.58
2022-12-11T00:09:00.610Z,24.15
2022-12-11T00:11:27.875Z,25.23
2022-12-11T00:13:55.135Z,26.55
2022-12-11T00:16:26.662Z,26.73
2022-12-11T00:18:54.644Z,25.50
2022-12-11T00:21:21.953Z,25.92
2022-12-11T00:23:49.157Z,26.23
2022-12-11T00:26:16.436Z,24.88
2022-12-11T00:28:44.294Z,26.65
2022-12-11T00:31:15.046Z,24.60
2022-12-11T00:33:42.856Z,28.83
2022-12-11T00:36:14.575Z,27.53
2022-12-11T00:38:42.911Z,27.30
2022-12-11T00:41:10.193Z,26.55
2022-12-11T00:43:37.735Z,26.90
2022-12-11T00:46:05.146Z,27.98
2022-12-11T00:48:32.602Z,27.43
2022-12-11T00:51:00.274Z,27.38
2022-12-11T00:53:27.591Z,29.33
2022-12-11T00:55:54.859Z,28.55
2022-12-11T00:58:22.652Z,26.98
2022-12-11T01:00:53.244Z,29.43
2022-12-11T01:03:20.645Z,30.20
2022-12-11T01:05:54.944Z,27.05
2022-12-11T01:08:22.627Z,29.48
2022-12-11T01:10:49.922Z,29.25
2022-12-11T01:13:17.235Z,26.17
2022-12-11T01:15:45.732Z,27.08
2022-12-11T01:18:14.021Z,29.08
2022-12-11T01:20:42.617Z,28.13
2022-12-11T01:23:13.001Z,28.65
2022-12-11T01:25:40.892Z,29.40
2022-12-11T01:28:08.210Z,29.15
2022-12-11T01:30:35.932Z,27.35
2022-12-11T01:33:03.390Z,29.52
2022-12-11T01:35:30.673Z,27.75
2022-12-11T01:37:57.945Z,27.57
2022-12-11T01:40:25.239Z,25.23
2022-12-11T01:42:52.569Z,25.77
2022-12-11T01:45:26.619Z,25.17
2022-12-11T01:48:14.436Z,25.00
2022-12-11T01:50:46.555Z,26.33
2022-12-11T01:53:17.761Z,24.35
2022-12-11T01:55:45.917Z,25.95
2022-12-11T01:58:13.304Z,25.40
2022-12-11T02:00:40.523Z,24.80
2022-12-11T02:03:07.791Z,25.77
2022-12-11T02:05:35.035Z,26.45
2022-12-11T02:08:03.542Z,24.45
2022-12-11T02:10:57.401Z,26.70
2022-12-11T02:13:30.835Z,26.80
2022-12-11T02:16:13.764Z,25.23
2022-12-11T02:18:48.326Z,24.60
2022-12-11T02:21:21.686Z,24.23
2022-12-11T02:23:56.752Z,21.98
2022-12-11T02:26:29.977Z,23.33
2022-12-11T02:29:01.808Z,24.13
2022-12-11T02:31:35.171Z,26.15
2022-12-11T02:34:09.248Z,27.02
2022-12-11T02:36:38.877Z,26.38
2022-12-11T02:39:07.943Z,26.60
2022-12-11T02:41:35.713Z,24.43
2022-12-11T02:44:03.892Z,23.45
2022-12-11T02:46:31.802Z,22.98
2022-12-11T02:48:59.225Z,24.05
2022-12-11T02:51:29.073Z,21.38
2022-12-11T02:53:58.747Z,20.80
2022-12-11T02:56:36.718Z,22.83
2022-12-11T02:59:07.545Z,20.67
2022-12-11T03:01:34.902Z,19.95
2022-12-11T03:04:02.354Z,18.20
2022-12-11T03:06:32.788Z,18.43
2022-12-11T03:09:00.054Z,16.63
2022-12-11T03:11:27.412Z,16.63
2022-12-11T03:13:54.990Z,16.63
2022-12-11T03:16:31.922Z,18.38
2022-12-11T03:19:16.816Z,18.83
2022-12-11T03:21:52.620Z,20.27
2022-12-11T03:24:21.594Z,17.60
2022-12-11T03:26:57.273Z,18.27
2022-12-11T03:29:27.840Z,18.40
2022-12-11T03:31:57.605Z,17.07
2022-12-11T03:34:28.561Z,17.13
2022-12-11T03:36:57.189Z,17.98
2022-12-11T03:39:32.186Z,18.92
2022-12-11T03:42:02.107Z,18.42
2022-12-11T03:44:30.689Z,18.03
2022-12-11T03:46:58.414Z,15.68
2022-12-11T03:49:27.945Z,16.08
2022-12-11T03:51:56.047Z,18.55
2022-12-11T03:54:24.129Z,18.35
2022-12-11T03:56:52.789Z,16.83
2022-12-11T03:59:20.060Z,19.17
2022-12-11T04:01:47.467Z,18.75
2022-12-11T04:04:14.787Z,19.15
2022-12-11T04:06:42.183Z,19.17
2022-12-11T04:09:09.431Z,18.52
2022-12-11T04:11:36.793Z,19.98
2022-12-11T04:14:23.904Z,20.27
2022-12-11T04:16:51.201Z,18.38
2022-12-11T04:19:37.435Z,17.00
2022-12-11T04:22:14.124Z,19.30
2022-12-11T04:24:41.408Z,18.42
2022-12-11T04:27:08.787Z,18.90
2022-12-11T04:29:35.947Z,19.90
2022-12-11T04:32:03.182Z,18.52
2022-12-11T04:34:30.712Z,20.40
2022-12-11T04:36:57.992Z,17.02
2022-12-11T04:39:25.244Z,18.63
2022-12-11T04:41:52.581Z,20.50
2022-12-11T04:44:19.876Z,21.33
2022-12-11T04:46:47.237Z,19.77
2022-12-11T04:49:14.607Z,17.27
2022-12-11T04:51:41.869Z,18.77
2022-12-11T04:54:09.100Z,17.70
2022-12-11T04:56:36.378Z,18.33
2022-12-11T04:59:03.666Z,18.90
2022-12-11T05:01:30.915Z,18.45
2022-12-11T05:03:59.561Z,16.30
2022-12-11T05:06:26.750Z,19.10
2022-12-11T05:08:53.983Z,18.65
2022-12-11T05:11:21.226Z,15.80
2022-12-11T05:13:48.489Z,16.52
2022-12-11T05:16:18.787Z,18.67
2022-12-11T05:18:47.491Z,18.88
2022-12-11T05:21:15.398Z,17.95
2022-12-11T05:23:42.709Z,18.97
2022-12-11T05:26:12.656Z,17.80
2022-12-11T05:28:40.090Z,19.40
2022-12-11T05:31:17.446Z,19.20
2022-12-11T05:33:45.355Z,18.50
2022-12-11T05:36:23.908Z,19.73
2022-12-11T05:38:51.655Z,16.75
2022-12-11T05:41:20.308Z,16.77
2022-12-11T05:43:48.486Z,19.75
2022-12-11T05:46:17.826Z,16.52
2022-12-11T05:48:46.529Z,18.50
2022-12-11T05:51:14.622Z,15.68
2022-12-11T05:53:42.550Z,20.05
2022-12-11T05:56:12.104Z,18.90
2022-12-11T05:58:39.391Z,19.73
2022-12-11T06:01:10.564Z,19.33
2022-12-11T06:03:38.025Z,18.95
2022-12-11T06:06:06.223Z,20.05
2022-12-11T06:08:33.867Z,18.45
2022-12-11T06:11:01.240Z,19.48
2022-12-11T06:13:28.825Z,18.23
2022-12-11T06:15:56.085Z,17.92
2022-12-11T06:18:23.349Z,19.20
2022-12-11T06:20:50.631Z,17.67
2022-12-11T06:23:18.208Z,16.83
2022-12-11T06:25:45.586Z,17.33
2022-12-11T06:28:12.761Z,17.02
2022-12-11T06:30:40.032Z,16.23
2022-12-11T06:33:07.430Z,15.77
2022-12-11T06:35:41.447Z,18.30
2022-12-11T06:38:09.802Z,18.03
2022-12-11T06:40:37.025Z,17.33
2022-12-11T06:43:04.327Z,17.98
2022-12-11T06:45:31.630Z,17.10
2022-12-11T06:47:59.321Z,19.77
2022-12-11T06:50:27.420Z,19.20
2022-12-11T06:52:55.986Z,20.20
2022-12-11T06:55:23.803Z,18.77
2022-12-11T06:57:51.121Z,17.08
2022-12-11T07:00:18.443Z,19.02
2022-12-11T07:02:45.679Z,17.00
2022-12-11T07:05:13.417Z,19.65
2022-12-11T07:07:40.920Z,18.65
2022-12-11T07:10:08.856Z,19.10
2022-12-11T07:12:36.560Z,17.15
2022-12-11T07:15:04.629Z,16.07
2022-12-11T07:17:32.123Z,18.23
2022-12-11T07:19:59.403Z,18.77
2022-12-11T07:22:26.690Z,19.52
2022-12-11T07:24:53.935Z,17.70
2022-12-11T07:27:21.220Z,18.93
2022-12-11T07:29:48.488Z,16.27
2022-12-11T07:32:15.864Z,16.92
2022-12-11T07:34:47.224Z,17.00
2022-12-11T07:37:17.578Z,15.38
2022-12-11T07:39:44.855Z,14.73
2022-12-11T07:42:12.085Z,16.83
2022-12-11T07:44:39.353Z,19.13
2022-12-11T07:47:06.595Z,17.02
2022-12-11T07:49:33.897Z,17.65
2022-12-11T07:52:01.366Z,19.07
2022-12-11T07:54:28.680Z,18.92
2022-12-11T07:56:55.962Z,18.70
2022-12-11T07:59:23.258Z,13.60
2022-12-11T08:01:50.520Z,14.68
2022-12-11T08:04:17.777Z,14.73
2022-12-11T08:06:45.103Z,14.75
2022-12-11T08:09:20.765Z,17.63
2022-12-11T08:11:51.902Z,17.55
2022-12-11T08:14:19.801Z,19.42
2022-12-11T08:16:47.365Z,17.13
2022-12-11T08:19:14.980Z,16.95
2022-12-11T08:21:42.471Z,14.95
2022-12-11T08:24:10.113Z,18.17
2022-12-11T08:26:37.660Z,17.38
2022-12-11T08:29:05.004Z,19.43
2022-12-11T08:31:33.498Z,19.10
2022-12-11T08:34:00.975Z,16.02
2022-12-11T08:36:28.347Z,18.75
2022-12-11T08:38:56.813Z,16.77
2022-12-11T08:41:24.190Z,17.00
2022-12-11T08:43:55.253Z,18.27
2022-12-11T08:46:24.014Z,16.63
2022-12-11T08:48:51.468Z,18.88
2022-12-11T08:51:20.749Z,18.60
2022-12-11T08:53:48.066Z,19.13
2022-12-11T08:56:16.819Z,19.27
2022-12-11T08:58:44.519Z,17.85
2022-12-11T09:01:16.684Z,20.70
2022-12-11T09:03:43.997Z,20.98
2022-12-11T09:06:12.696Z,19.03
2022-12-11T09:08:40.548Z,19.50
2022-12-11T09:11:09.414Z,19.38
2022-12-11T09:13:36.668Z,19.67
2022-12-11T09:16:11.213Z,19.67
2022-12-11T09:18:39.268Z,19.43
2022-12-11T09:21:08.525Z,21.40
2022-12-11T09:23:35.937Z,19.13
2022-12-11T09:26:11.471Z,20.95
2022-12-11T09:28:45.708Z,18.50
2022-12-11T09:31:17.618Z,21.33
2022-12-11T09:33:45.143Z,19.58
2022-12-11T09:36:12.518Z,19.42
2022-12-11T09:38:40.160Z,20.27
2022-12-11T09:41:21.515Z,22.27
2022-12-11T09:43:51.433Z,20.05
2022-12-11T09:46:21.623Z,18.77
2022-12-11T09:48:53.729Z,18.73
2022-12-11T09:51:26.980Z,19.67
2022-12-11T09:53:55.407Z,18.42
2022-12-11T09:56:22.625Z,18.87
2022-12-11T09:59:16.957Z,19.73
2022-12-11T10:01:47.371Z,17.30
2022-12-11T10:04:33.630Z,19.00
2022-12-11T10:07:00.880Z,18.10
2022-12-11T10:09:36.328Z,18.67
2022-12-11T10:12:06.600Z,24.58
2022-12-11T10:14:40.985Z,17.88
2022-12-11T10:17:11.614Z,16.13
2022-12-11T10:19:40.593Z,15.85
2022-12-11T10:22:13.014Z,17.80
2022-12-11T10:25:10.201Z,15.88
2022-12-11T10:27:31.515Z,15.02
2022-12-11T10:30:22.256Z,15.15
2022-12-11T10:32:52.496Z,16.30
2022-12-11T10:35:31.968Z,15.00
2022-12-11T10:38:03.378Z,15.18
2022-12-11T10:40:32.404Z,16.20
2022-12-11T10:42:59.671Z,15.25
2022-12-11T10:45:26.979Z,15.60
2022-12-11T10:48:02.882Z,13.93
2022-12-11T10:50:30.229Z,14.32
2022-12-11T10:52:57.581Z,15.23
2022-12-11T10:55:27.988Z,15.50
2022-12-11T10:58:02.458Z,13.63
2022-12-11T11:00:32.438Z,15.00
2022-12-11T11:03:00.107Z,14.30
2022-12-11T11:05:35.053Z,13.57
2022-12-11T11:08:05.347Z,13.50
2022-12-11T11:10:32.891Z,14.32
2022-12-11T11:13:03.581Z,15.50
2022-12-11T11:15:31.525Z,12.23
2022-12-11T11:18:03.849Z,15.35
2022-12-11T11:20:31.630Z,14.63
2022-12-11T11:23:01.037Z,15.10
2022-12-11T11:25:33.064Z,14.03
2022-12-11T11:28:05.759Z,13.23
2022-12-11T11:30:36.258Z,14.95
2022-12-11T11:33:05.426Z,15.02
2022-12-11T11:35:33.098Z,14.95
2022-12-11T11:38:20.662Z,14.37
2022-12-11T11:40:50.819Z,17.27
2022-12-11T11:43:22.629Z,16.30
2022-12-11T11:45:56.135Z,15.30
2022-12-11T11:48:34.236Z,14.02
2022-12-11T11:51:04.739Z,16.57
2022-12-11T11:53:40.621Z,14.77
2022-12-11T11:56:26.626Z,16.65
2022-12-11T11:59:09.221Z,16.70
2022-12-11T12:01:36.532Z,16.05
2022-12-11T12:04:04.993Z,15.50
2022-12-11T12:06:35.513Z,15.68
2022-12-11T12:09:21.842Z,15.60
2022-12-11T12:11:55.355Z,14.63
2022-12-11T12:17:19.120Z,16.67
2022-12-11T12:19:58.753Z,15.52
2022-12-11T12:22:27.702Z,17.35
2022-12-11T12:24:54.915Z,16.05
2022-12-11T12:27:50.936Z,15.38
2022-12-11T12:30:20.367Z,14.50
2022-12-11T12:32:49.525Z,15.18
2022-12-11T12:35:31.809Z,17.83
2022-12-11T12:38:19.818Z,17.67
2022-12-11T12:41:06.072Z,18.23
2022-12-11T12:43:52.378Z,17.57
2022-12-11T12:46:42.405Z,19.10
2022-12-11T12:49:35.964Z,17.92
2022-12-11T12:52:04.784Z,17.70
2022-12-11T12:54:33.133Z,16.95
2022-12-11T12:57:00.884Z,17.77
2022-12-11T12:59:28.902Z,17.65
2022-12-11T13:02:00.625Z,18.17
2022-12-11T13:04:55.609Z,18.52
2022-12-11T13:07:28.498Z,18.20
2022-12-11T13:09:58.776Z,20.10
2022-12-11T13:12:56.005Z,19.08
2022-12-11T13:15:43.973Z,18.20
2022-12-11T13:18:30.149Z,17.60
2022-12-11T13:20:57.534Z,17.77
2022-12-11T13:23:28.203Z,17.30
2022-12-11T13:25:57.121Z,19.83
2022-12-11T13:28:27.480Z,18.58
2022-12-11T13:31:24.397Z,19.52
2022-12-11T13:33:53.270Z,19.88
2022-12-11T13:36:24.522Z,18.73
2022-12-11T13:38:55.631Z,19.90
2022-12-11T13:41:23.355Z,19.70
2022-12-11T13:43:51.288Z,20.40
2022-12-11T13:46:25.233Z,18.20
2022-12-11T13:48:57.572Z,20.97
2022-12-11T13:51:26.213Z,20.98
2022-12-11T13:54:03.261Z,19.25
2022-12-11T13:56:30.576Z,18.20
2022-12-11T13:58:57.823Z,19.85
2022-12-11T14:01:29.978Z,19.50
2022-12-11T14:04:03.141Z,15.45
2022-12-11T14:06:31.433Z,19.02
2022-12-11T14:09:00.132Z,19.65
2022-12-11T14:11:43.305Z,18.02
2022-12-11T14:14:19.576Z,17.23
2022-12-11T14:16:51.645Z,19.67
2022-12-11T14:19:20.653Z,19.90
2022-12-11T14:22:00.095Z,18.40
2022-12-11T14:24:27.426Z,18.95
2022-12-11T14:26:55.301Z,19.43
2022-12-11T14:29:30.222Z,18.30
2022-12-11T14:32:00.118Z,19.65
2022-12-11T14:34:31.306Z,20.95
2022-12-11T14:36:59.207Z,15.35
2022-12-11T14:39:34.021Z,17.10
2022-12-11T14:42:21.189Z,15.55
2022-12-11T14:44:50.416Z,25.70
2022-12-11T14:47:21.345Z,19.48
2022-12-11T14:49:56.189Z,19.60
2022-12-11T14:52:25.820Z,18.07
2022-12-11T14:55:00.844Z,16.33
2022-12-11T14:57:30.026Z,18.00
2022-12-11T14:59:57.511Z,17.10
2022-12-11T15:02:27.243Z,18.80
2022-12-11T15:05:00.834Z,18.43
2022-12-11T15:07:28.096Z,17.83
2022-12-11T15:09:55.952Z,19.95
2022-12-11T15:12:23.368Z,19.23
2022-12-11T15:15:01.505Z,19.13
2022-12-11T15:17:30.907Z,19.70
2022-12-11T15:20:04.051Z,18.63
2022-12-11T15:22:32.653Z,18.75
2022-12-11T15:25:00.296Z,21.17
2022-12-11T15:27:38.258Z,19.95
2022-12-11T15:30:29.833Z,16.43
2022-12-11T15:33:12.457Z,18.65
2022-12-11T15:35:40.670Z,18.95
2022-12-11T15:38:27.091Z,19.25
2022-12-11T15:40:54.329Z,18.88
2022-12-11T15:43:21.564Z,18.20
2022-12-11T15:45:48.886Z,18.92
2022-12-11T15:48:16.433Z,19.13
2022-12-11T15:50:43.765Z,17.15
2022-12-11T15:53:11.122Z,16.73
2022-12-11T15:55:38.856Z,17.50
2022-12-11T15:58:07.748Z,17.55
2022-12-11T16:00:35.018Z,17.88
2022-12-11T16:03:02.321Z,15.20
2022-12-11T16:05:29.592Z,16.30
2022-12-11T16:07:59.656Z,17.83
2022-12-11T16:10:27.278Z,15.45
2022-12-11T16:12:59.326Z,16.45
2022-12-11T16:15:27.134Z,14.13
2022-12-11T16:18:01.399Z,14.38
2022-12-11T16:20:28.786Z,14.77
2022-12-11T16:22:56.014Z,15.65
2022-12-11T16:25:23.307Z,15.05
2022-12-11T16:27:50.625Z,15.20
2022-12-11T16:30:17.978Z,14.63
2022-12-11T16:32:45.279Z,15.50
2022-12-11T16:35:12.973Z,14.40
2022-12-11T16:37:40.695Z,15.48
2022-12-11T16:40:08.264Z,14.98
2022-12-11T16:42:35.643Z,14.77
2022-12-11T16:45:07.206Z,15.70
2022-12-11T16:47:34.790Z,14.73
2022-12-11T16:50:02.284Z,15.00
2022-12-11T16:52:29.643Z,16.35
2022-12-11T16:54:57.766Z,16.73
2022-12-11T16:57:25.205Z,17.87
2022-12-11T16:59:52.838Z,15.15
2022-12-11T17:02:20.969Z,15.68
2022-12-11T17:04:53.623Z,16.60
2022-12-11T17:07:21.362Z,16.40
2022-12-11T17:09:48.654Z,16.52
2022-12-11T17:12:15.961Z,15.77
2022-12-11T17:14:43.279Z,19.30
2022-12-11T17:17:10.719Z,16.55
2022-12-11T17:19:38.102Z,16.15
2022-12-11T17:22:05.380Z,16.27
2022-12-11T17:24:32.712Z,16.77
2022-12-11T17:27:00.021Z,17.40
2022-12-11T17:29:27.562Z,19.17
2022-12-11T17:31:55.120Z,15.57
2022-12-11T17:34:22.402Z,16.30
2022-12-11T17:36:49.719Z,16.27
2022-12-11T17:39:17.023Z,15.57
2022-12-11T17:41:44.270Z,14.80
2022-12-11T17:44:11.743Z,15.48
2022-12-11T17:46:39.161Z,14.80
2022-12-11T17:49:06.647Z,15.93
2022-12-11T17:51:33.855Z,14.32
2022-12-11T17:54:01.152Z,15.82
2022-12-11T17:56:28.471Z,16.38
2022-12-11T17:58:55.765Z,15.70
2022-12-11T18:01:23.124Z,16.13
2022-12-11T18:03:50.519Z,16.08
2022-12-11T18:06:18.044Z,16.67
2022-12-11T18:08:46.079Z,15.93
2022-12-11T18:11:15.282Z,15.77
2022-12-11T18:13:43.670Z,16.77
2022-12-11T18:16:17.313Z,15.20
2022-12-11T18:18:46.213Z,14.80
2022-12-11T18:21:14.517Z,15.85
2022-12-11T18:23:41.851Z,16.07
2022-12-11T18:26:10.888Z,15.23
2022-12-11T18:28:38.159Z,16.20
2022-12-11T18:31:05.544Z,13.60
2022-12-11T18:33:32.833Z,16.10
2022-12-11T18:36:00.089Z,14.73
2022-12-11T18:38:27.341Z,16.25
2022-12-11T18:40:54.638Z,15.05
2022-12-11T18:43:21.976Z,16.25
2022-12-11T18:45:49.297Z,17.55
2022-12-11T18:48:16.623Z,15.20
2022-12-11T18:50:47.861Z,16.27
2022-12-11T18:53:15.389Z,16.15
2022-12-11T18:55:46.502Z,17.02
2022-12-11T18:58:14.915Z,16.92
2022-12-11T19:00:43.272Z,16.23
2022-12-11T19:03:11.992Z,16.25
2022-12-11T19:05:42.441Z,16.13
2022-12-11T19:08:10.228Z,16.50
2022-12-11T19:10:47.760Z,18.38
2022-12-11T19:13:15.547Z,17.40
2022-12-11T19:15:43.485Z,17.00
2022-12-11T19:18:11.154Z,17.30
2022-12-11T19:20:57.727Z,17.25
2022-12-11T19:23:31.776Z,18.35
2022-12-11T19:25:59.449Z,19.77
2022-12-11T19:28:26.692Z,18.05
2022-12-11T19:30:53.957Z,16.27
2022-12-11T19:33:21.215Z,16.50
2022-12-11T19:35:48.531Z,16.10
2022-12-11T19:38:15.994Z,15.43
2022-12-11T19:40:44.134Z,15.15
2022-12-11T19:43:11.847Z,15.75
2022-12-11T19:45:39.435Z,14.90
2022-12-11T19:48:06.855Z,16.08
2022-12-11T19:50:36.010Z,15.53
2022-12-11T19:53:03.451Z,16.23
2022-12-11T19:55:30.732Z,16.45
2022-12-11T19:57:57.992Z,14.02
2022-12-11T20:00:25.249Z,14.55
2022-12-11T20:02:52.524Z,15.20
2022-12-11T20:05:19.921Z,14.23
2022-12-11T20:07:47.232Z,15.60
2022-12-11T20:10:15.646Z,15.48
2022-12-11T20:12:42.962Z,16.25
2022-12-11T20:15:11.491Z,15.67
2022-12-11T20:17:43.276Z,15.95
2022-12-11T20:20:11.233Z,16.27
2022-12-11T20:22:38.483Z,15.70
2022-12-11T20:25:05.971Z,15.80
2022-12-11T20:27:33.267Z,15.60
2022-12-11T20:30:00.543Z,15.35
2022-12-11T20:32:27.879Z,15.02
2022-12-11T20:34:58.864Z,14.70
2022-12-11T20:37:26.894Z,16.08
2022-12-11T20:39:54.161Z,15.32
2022-12-11T20:42:21.490Z,14.45
2022-12-11T20:44:49.567Z,14.80
2022-12-11T20:47:19.817Z,14.93
2022-12-11T20:49:47.767Z,15.93
2022-12-11T20:52:15.001Z,16.53
2022-12-11T20:54:42.488Z,15.95
2022-12-11T20:57:10.205Z,15.30
2022-12-11T20:59:37.653Z,16.42
2022-12-11T21:02:05.570Z,17.30
2022-12-11T21:04:32.954Z,15.07
2022-12-11T21:07:00.867Z,15.40
2022-12-11T21:09:29.269Z,15.82
2022-12-11T21:11:58.262Z,16.25
2022-12-11T21:14:25.521Z,14.77
2022-12-11T21:16:52.980Z,15.20
2022-12-11T21:19:23.470Z,14.93
2022-12-11T21:21:51.744Z,15.45
2022-12-11T21:24:23.478Z,15.82
2022-12-11T21:26:50.814Z,14.68
2022-12-11T21:29:18.339Z,14.33
2022-12-11T21:31:45.794Z,15.82
2022-12-11T21:34:14.031Z,14.20
2022-12-11T21:36:41.457Z,14.43
2022-12-11T21:39:11.847Z,13.82
2022-12-11T21:41:39.368Z,15.63
2022-12-11T21:46:54.102Z,15.68
2022-12-11T21:49:21.405Z,15.23
2022-12-11T21:51:49.277Z,13.80
2022-12-11T21:54:18.090Z,13.13
2022-12-11T21:56:45.433Z,12.48
2022-12-11T21:59:12.789Z,13.07
2022-12-11T22:01:42.133Z,13.30
2022-12-11T22:04:10.164Z,13.98
2022-12-11T22:06:37.847Z,11.93
2022-12-11T22:09:06.183Z,12.57
2022-12-11T22:11:34.104Z,13.25
2022-12-11T22:14:02.023Z,13.57
2022-12-11T22:16:29.475Z,13.13
2022-12-11T22:18:56.990Z,12.70
2022-12-11T22:21:25.373Z,13.20
2022-12-11T22:23:52.983Z,14.10
2022-12-11T22:26:21.650Z,12.88
2022-12-11T22:28:49.240Z,13.43
2022-12-11T22:31:17.818Z,13.67
2022-12-11T22:33:45.296Z,14.80
2022-12-11T22:36:12.634Z,14.13
2022-12-11T22:38:39.962Z,12.90
2022-12-11T22:41:11.543Z,13.82
2022-12-11T22:43:38.797Z,14.67
2022-12-11T22:46:06.237Z,14.02
2022-12-11T22:48:33.558Z,13.88
2022-12-11T22:51:04.558Z,13.48
2022-12-11T22:53:31.816Z,15.77
2022-12-11T22:55:59.050Z,15.00
2022-12-11T22:58:26.358Z,14.80
2022-12-11T23:00:53.679Z,13.93
2022-12-11T23:03:21.011Z,13.85
2022-12-11T23:05:48.265Z,15.18
2022-12-11T23:08:15.535Z,14.20
2022-12-11T23:10:42.878Z,15.02
2022-12-11T23:13:10.311Z,15.23
2022-12-11T23:15:37.558Z,13.20
2022-12-11T23:18:04.921Z,14.35
2022-12-11T23:20:32.219Z,14.07
2022-12-11T23:22:59.443Z,15.07
2022-12-11T23:25:27.983Z,16.77
2022-12-11T23:27:55.276Z,14.10
2022-12-11T23:30:23.038Z,13.40
2022-12-11T23:32:50.316Z,15.23
2022-12-11T23:35:17.567Z,15.40
2022-12-11T23:37:44.969Z,13.98
2022-12-11T23:40:14.227Z,14.85
2022-12-11T23:42:41.528Z,16.25
2022-12-11T23:45:09.011Z,15.63
2022-12-11T23:47:36.276Z,13.82
2022-12-11T23:50:04.225Z,14.80
2022-12-11T23:52:31.440Z,12.00
2022-12-11T23:54:58.681Z,16.02
2022-12-11T23:57:26.257Z,16.80
2022-12-11T23:59:53.495Z,16.30
